createdAt,value
2022-11-15T00:00:29.157Z,100781.77
2022-11-15T00:03:19.940Z,100776.52
2022-11-15T00:06:10.922Z,100779.75
2022-11-15T00:09:03.232Z,100771.42
2022-11-15T00:11:53.298Z,100768.14
2022-11-15T00:14:42.732Z,100762.70
2022-11-15T00:17:32.175Z,100756.74
2022-11-15T00:20:21.783Z,100754.88
2022-11-15T00:23:11.206Z,100752.71
2022-11-15T00:26:01.269Z,100750.20
2022-11-15T00:28:50.940Z,100747.14
2022-11-15T00:31:40.251Z,100743.91
2022-11-15T00:34:29.762Z,100736.95
2022-11-15T00:37:18.969Z,100733.02
2022-11-15T00:40:11.320Z,100731.64
2022-11-15T00:43:00.972Z,100726.70
2022-11-15T00:45:50.732Z,100719.55
2022-11-15T00:48:40.263Z,100711.71
2022-11-15T00:51:30.086Z,100711.15
2022-11-15T00:54:19.976Z,100706.39
2022-11-15T00:57:09.601Z,100705.73
2022-11-15T00:59:58.961Z,100699.62
2022-11-15T01:02:48.515Z,100693.50
2022-11-15T01:05:40.604Z,100687.56
2022-11-15T01:08:29.993Z,100686.90
2022-11-15T01:11:19.528Z,100681.12
2022-11-15T01:14:09.040Z,100673.51
2022-11-15T01:16:58.915Z,100679.13
2022-11-15T01:19:48.562Z,100667.56
2022-11-15T01:22:37.903Z,100664.36
2022-11-15T01:25:27.173Z,100662.17
2022-11-15T01:28:16.680Z,100655.54
2022-11-15T01:31:08.518Z,100653.64
2022-11-15T01:33:57.839Z,100661.59
2022-11-15T01:36:47.611Z,100650.91
2022-11-15T01:39:37.139Z,100650.22
2022-11-15T01:42:26.460Z,100654.92
2022-11-15T01:45:17.861Z,100646.21
2022-11-15T01:48:12.213Z,100646.89
2022-11-15T01:51:03.884Z,100643.02
2022-11-15T01:53:57.430Z,100638.98
2022-11-15T01:56:53.197Z,100637.84
2022-11-15T01:59:45.505Z,100631.27
2022-11-15T02:02:35.592Z,100628.55
2022-11-15T02:05:25.726Z,100621.88
2022-11-15T02:08:21.078Z,100618.44
2022-11-15T02:11:12.935Z,100617.73
2022-11-15T02:14:04.179Z,100612.95
2022-11-15T02:17:01.581Z,100611.92
2022-11-15T02:20:22.414Z,100612.58
2022-11-15T02:23:55.493Z,100613.80
2022-11-15T02:27:23.976Z,100605.86
2022-11-15T02:30:30.012Z,100609.49
2022-11-15T02:33:29.635Z,100605.05
2022-11-15T02:36:28.695Z,100593.77
2022-11-15T02:39:25.515Z,100586.98
2022-11-15T02:42:37.735Z,100593.60
2022-11-15T02:45:30.256Z,100587.99
2022-11-15T02:48:22.262Z,100586.23
2022-11-15T02:51:12.414Z,100584.33
2022-11-15T02:54:01.941Z,100575.13
2022-11-15T02:56:54.535Z,100577.30
2022-11-15T03:00:09.643Z,100575.92
2022-11-15T03:03:27.359Z,100565.21
2022-11-15T03:06:30.045Z,100562.66
2022-11-15T03:09:31.055Z,100552.98
2022-11-15T03:12:30.151Z,100548.77
2022-11-15T03:15:24.007Z,100552.18
2022-11-15T03:18:21.862Z,100554.05
2022-11-15T03:21:13.917Z,100547.96
2022-11-15T03:24:08.598Z,100545.09
2022-11-15T03:27:01.542Z,100537.27
2022-11-15T03:29:56.717Z,100532.52
2022-11-15T03:32:49.197Z,100527.62
2022-11-15T03:35:43.168Z,100521.38
2022-11-15T03:38:37.109Z,100518.73
2022-11-15T03:41:30.487Z,100513.35
2022-11-15T03:44:29.224Z,100513.36
2022-11-15T03:47:23.650Z,100508.27
2022-11-15T03:50:17.578Z,100504.52
2022-11-15T03:53:07.840Z,100499.61
2022-11-15T03:55:57.109Z,100499.13
2022-11-15T03:58:46.476Z,100493.86
2022-11-15T04:01:36.015Z,100492.83
2022-11-15T04:04:25.836Z,100490.79
2022-11-15T04:07:15.357Z,100491.63
2022-11-15T04:10:06.656Z,100483.30
2022-11-15T04:12:56.314Z,100481.27
2022-11-15T04:15:45.913Z,100480.56
2022-11-15T04:18:35.374Z,100476.83
2022-11-15T04:21:42.491Z,100474.30
2022-11-15T04:24:32.138Z,100475.52
2022-11-15T04:27:21.771Z,100472.48
2022-11-15T04:30:12.972Z,100471.16
2022-11-15T04:33:02.358Z,100469.48
2022-11-15T04:36:05.728Z,100469.65
2022-11-15T04:38:55.023Z,100467.63
2022-11-15T04:41:44.741Z,100465.58
2022-11-15T04:44:34.167Z,100468.67
2022-11-15T04:47:23.934Z,100464.45
2022-11-15T04:50:14.366Z,100466.00
2022-11-15T04:53:03.744Z,100463.61
2022-11-15T04:55:53.259Z,100462.61
2022-11-15T04:58:42.994Z,100462.05
2022-11-15T05:01:45.040Z,100459.16
2022-11-15T05:04:37.140Z,100456.98
2022-11-15T05:07:26.942Z,100449.39
2022-11-15T05:10:17.111Z,100447.04
2022-11-15T05:13:07.381Z,100446.55
2022-11-15T05:15:57.469Z,100444.01
2022-11-15T05:18:46.872Z,100442.83
2022-11-15T05:21:38.394Z,100444.02
2022-11-15T05:24:27.632Z,100442.84
2022-11-15T05:27:16.988Z,100437.23
2022-11-15T05:30:08.608Z,100438.05
2022-11-15T05:32:59.793Z,100437.56
2022-11-15T05:35:52.890Z,100438.92
2022-11-15T05:38:42.575Z,100441.78
2022-11-15T05:41:39.728Z,100439.88
2022-11-15T05:44:29.821Z,100436.13
2022-11-15T05:47:24.497Z,100432.03
2022-11-15T05:50:21.144Z,100430.16
2022-11-15T05:53:13.060Z,100431.67
2022-11-15T05:56:11.798Z,100427.76
2022-11-15T05:59:03.712Z,100422.66
2022-11-15T06:01:56.547Z,100418.92
2022-11-15T06:04:47.378Z,100422.01
2022-11-15T06:07:37.884Z,100424.72
2022-11-15T06:10:28.160Z,100425.42
2022-11-15T06:13:18.708Z,100429.83
2022-11-15T06:16:09.852Z,100432.20
2022-11-15T06:19:00.305Z,100431.52
2022-11-15T06:21:50.525Z,100433.38
2022-11-15T06:24:40.197Z,100443.73
2022-11-15T06:27:30.998Z,100441.52
2022-11-15T06:30:23.755Z,100434.53
2022-11-15T06:33:13.826Z,100429.77
2022-11-15T06:36:06.599Z,100431.46
2022-11-15T06:38:57.276Z,100435.89
2022-11-15T06:42:11.647Z,100439.96
2022-11-15T06:45:05.161Z,100436.74
2022-11-15T06:48:01.340Z,100441.52
2022-11-15T06:51:01.008Z,100444.92
2022-11-15T06:53:54.236Z,100442.73
2022-11-15T06:56:44.555Z,100446.33
2022-11-15T06:59:39.273Z,100447.15
2022-11-15T07:02:46.370Z,100444.58
2022-11-15T07:05:41.933Z,100443.39
2022-11-15T07:08:33.156Z,100451.70
2022-11-15T07:11:23.903Z,100449.70
2022-11-15T07:14:23.460Z,100451.77
2022-11-15T07:17:17.078Z,100456.89
2022-11-15T07:20:10.805Z,100456.23
2022-11-15T07:23:13.653Z,100449.14
2022-11-15T07:26:13.498Z,100451.73
2022-11-15T07:29:07.131Z,100452.96
2022-11-15T07:31:58.760Z,100451.81
2022-11-15T07:34:55.066Z,100453.71
2022-11-15T07:37:44.717Z,100448.98
2022-11-15T07:40:35.137Z,100447.46
2022-11-15T07:43:24.854Z,100445.44
2022-11-15T07:46:17.839Z,100441.88
2022-11-15T07:49:08.068Z,100435.23
2022-11-15T07:51:58.215Z,100435.71
2022-11-15T07:54:48.672Z,100435.21
2022-11-15T07:57:38.566Z,100434.05
2022-11-15T08:00:28.466Z,100425.92
2022-11-15T08:03:19.264Z,100422.70
2022-11-15T08:06:09.586Z,100417.59
2022-11-15T08:09:03.561Z,100411.31
2022-11-15T08:12:48.341Z,100406.58
2022-11-15T08:15:41.053Z,100408.28
2022-11-15T08:18:31.566Z,100405.93
2022-11-15T08:21:23.539Z,100401.54
2022-11-15T08:24:14.268Z,100396.66
2022-11-15T08:27:05.270Z,100393.65
2022-11-15T08:29:59.303Z,100390.28
2022-11-15T08:32:49.981Z,100390.32
2022-11-15T08:35:40.690Z,100390.16
2022-11-15T08:38:31.909Z,100392.88
2022-11-15T08:41:34.402Z,100391.33
2022-11-15T08:44:26.317Z,100386.95
2022-11-15T08:47:17.765Z,100386.46
2022-11-15T08:50:09.772Z,100386.30
2022-11-15T08:52:59.678Z,100386.83
2022-11-15T08:55:50.884Z,100385.30
2022-11-15T08:58:41.122Z,100388.39
2022-11-15T09:01:34.011Z,100384.48
2022-11-15T09:04:26.711Z,100382.27
2022-11-15T09:07:17.185Z,100375.95
2022-11-15T09:10:08.321Z,100374.24
2022-11-15T09:12:58.642Z,100371.20
2022-11-15T09:15:48.965Z,100367.29
2022-11-15T09:18:43.355Z,100369.35
2022-11-15T09:21:38.199Z,100363.73
2022-11-15T09:24:30.274Z,100358.45
2022-11-15T09:27:23.840Z,100353.67
2022-11-15T09:30:15.201Z,100353.17
2022-11-15T09:33:14.062Z,100347.75
2022-11-15T09:36:04.958Z,100344.02
2022-11-15T09:38:54.656Z,100338.73
2022-11-15T09:42:08.068Z,100337.02
2022-11-15T09:45:08.707Z,100335.33
2022-11-15T09:48:15.113Z,100332.95
2022-11-15T09:51:01.010Z,100329.58
2022-11-15T09:56:38.163Z,100327.07
2022-11-15T09:59:22.919Z,100320.45
2022-11-15T10:02:03.774Z,100322.34
2022-11-15T10:04:41.053Z,100317.77
2022-11-15T10:07:21.026Z,100312.86
2022-11-15T10:09:58.578Z,100309.64
2022-11-15T10:12:32.474Z,100306.94
2022-11-15T10:15:13.897Z,100303.88
2022-11-15T10:18:16.638Z,100301.33
2022-11-15T10:20:58.647Z,100296.56
2022-11-15T10:23:32.311Z,100300.46
2022-11-15T10:26:06.949Z,100304.53
2022-11-15T10:28:38.182Z,100301.13
2022-11-15T10:31:26.922Z,100297.05
2022-11-15T10:34:13.903Z,100293.30
2022-11-15T10:36:50.436Z,100291.11
2022-11-15T10:39:21.539Z,100291.96
2022-11-15T10:41:52.493Z,100293.16
2022-11-15T10:44:29.041Z,100285.53
2022-11-15T10:47:26.920Z,100283.98
2022-11-15T10:50:00.748Z,100279.73
2022-11-15T10:52:33.859Z,100284.84
2022-11-15T10:55:22.858Z,100284.52
2022-11-15T10:57:56.389Z,100282.32
2022-11-15T11:00:37.638Z,100277.39
2022-11-15T11:03:26.539Z,100274.52
2022-11-15T11:06:08.424Z,100270.61
2022-11-15T11:08:39.551Z,100270.27
2022-11-15T11:11:11.329Z,100273.69
2022-11-15T11:13:42.879Z,100271.81
2022-11-15T11:16:36.383Z,100273.67
2022-11-15T11:19:20.693Z,100269.44
2022-11-15T11:22:03.224Z,100270.46
2022-11-15T11:24:40.196Z,100266.55
2022-11-15T11:27:25.678Z,100263.48
2022-11-15T11:30:11.921Z,100258.04
2022-11-15T11:33:00.738Z,100246.80
2022-11-15T11:35:37.485Z,100243.58
2022-11-15T11:38:24.059Z,100239.66
2022-11-15T11:41:07.734Z,100239.48
2022-11-15T11:43:50.664Z,100236.27
2022-11-15T11:46:38.568Z,100232.51
2022-11-15T11:49:12.945Z,100229.27
2022-11-15T11:51:50.152Z,100228.58
2022-11-15T11:54:25.749Z,100220.92
2022-11-15T11:57:00.720Z,100221.77
2022-11-15T11:59:41.246Z,100218.20
2022-11-15T12:02:24.128Z,100209.00
2022-11-15T12:05:00.549Z,100205.95
2022-11-15T12:07:34.336Z,100205.61
2022-11-15T12:10:16.097Z,100203.91
2022-11-15T12:12:56.303Z,100203.23
2022-11-15T12:15:29.855Z,100203.20
2022-11-15T12:18:02.629Z,100204.07
2022-11-15T12:20:40.011Z,100199.29
2022-11-15T12:23:17.530Z,100197.21
2022-11-15T12:25:55.014Z,100188.89
2022-11-15T12:28:37.923Z,100186.50
2022-11-15T12:31:18.500Z,100181.89
2022-11-15T12:33:51.079Z,100178.83
2022-11-15T12:36:40.648Z,100174.74
2022-11-15T12:39:12.764Z,100174.74
2022-11-15T12:41:48.398Z,100168.95
2022-11-15T12:45:01.464Z,100170.31
2022-11-15T12:47:32.365Z,100170.48
2022-11-15T12:50:03.339Z,100175.41
2022-11-15T12:52:34.181Z,100177.98
2022-11-15T12:55:28.708Z,100179.15
2022-11-15T12:58:44.333Z,100176.42
2022-11-15T13:01:52.852Z,100166.89
2022-11-15T13:04:29.897Z,100159.58
2022-11-15T13:07:04.137Z,100164.01
2022-11-15T13:09:58.738Z,100167.40
2022-11-15T13:12:55.138Z,100164.69
2022-11-15T13:15:43.024Z,100164.52
2022-11-15T13:18:36.767Z,100154.83
2022-11-15T13:21:40.094Z,100162.65
2022-11-15T13:24:18.376Z,100155.34
2022-11-15T13:26:49.402Z,100148.02
2022-11-15T13:29:22.309Z,100144.43
2022-11-15T13:31:53.674Z,100145.45
2022-11-15T13:34:52.122Z,100142.23
2022-11-15T13:37:36.635Z,100134.55
2022-11-15T13:40:31.247Z,100131.32
2022-11-15T13:43:17.686Z,100133.52
2022-11-15T13:46:05.444Z,100132.82
2022-11-15T13:48:36.385Z,100129.58
2022-11-15T13:51:10.878Z,100134.02
2022-11-15T13:53:47.785Z,100127.52
2022-11-15T13:56:22.928Z,100130.43
2022-11-15T13:58:54.169Z,100132.32
2022-11-15T14:01:28.628Z,100129.77
2022-11-15T14:04:01.888Z,100127.89
2022-11-15T14:06:34.655Z,100125.85
2022-11-15T14:09:26.937Z,100121.59
2022-11-15T14:11:59.594Z,100121.23
2022-11-15T14:14:32.216Z,100116.98
2022-11-15T14:17:04.467Z,100111.88
2022-11-15T14:19:41.260Z,100114.60
2022-11-15T14:22:22.630Z,100111.56
2022-11-15T14:28:07.245Z,100110.54
2022-11-15T14:30:38.561Z,100113.30
2022-11-15T14:33:23.299Z,100111.61
2022-11-15T14:35:55.628Z,100110.25
2022-11-15T14:38:26.928Z,100104.98
2022-11-15T14:40:58.222Z,100105.33
2022-11-15T14:43:29.537Z,100107.23
2022-11-15T14:46:01.385Z,100109.10
2022-11-15T14:48:32.996Z,100112.34
2022-11-15T14:51:04.196Z,100112.86
2022-11-15T14:53:35.366Z,100111.16
2022-11-15T14:56:06.688Z,100109.65
2022-11-15T14:58:37.723Z,100107.42
2022-11-15T15:01:16.033Z,100107.43
2022-11-15T15:03:46.980Z,100111.69
2022-11-15T15:06:18.693Z,100110.32
2022-11-15T15:08:51.663Z,100104.38
2022-11-15T15:11:25.432Z,100105.75
2022-11-15T15:13:58.432Z,100106.27
2022-11-15T15:16:29.398Z,100102.19
2022-11-15T15:19:00.501Z,100104.40
2022-11-15T15:21:36.818Z,100100.15
2022-11-15T15:24:10.818Z,100095.72
2022-11-15T15:26:42.083Z,100099.13
2022-11-15T15:29:13.309Z,100094.88
2022-11-15T15:31:44.931Z,100094.72
2022-11-15T15:34:17.038Z,100094.37
2022-11-15T15:36:48.184Z,100097.09
2022-11-15T15:39:19.061Z,100093.02
2022-11-15T15:41:54.790Z,100095.75
2022-11-15T15:44:28.333Z,100094.40
2022-11-15T15:46:59.962Z,100093.38
2022-11-15T15:49:31.031Z,100092.86
2022-11-15T15:52:02.241Z,100088.45
2022-11-15T15:54:33.412Z,100087.25
2022-11-15T15:57:04.462Z,100085.05
2022-11-15T15:59:35.729Z,100083.18
2022-11-15T16:02:06.717Z,100081.14
2022-11-15T16:04:37.604Z,100077.39
2022-11-15T16:07:17.845Z,100074.52
2022-11-15T16:10:04.283Z,100071.96
2022-11-15T16:12:36.531Z,100074.86
2022-11-15T16:15:09.814Z,100069.92
2022-11-15T16:17:43.405Z,100063.96
2022-11-15T16:20:32.812Z,100062.79
2022-11-15T16:23:08.944Z,100066.02
2022-11-15T16:25:46.460Z,100064.83
2022-11-15T16:28:21.812Z,100063.80
2022-11-15T16:31:02.266Z,100061.93
2022-11-15T16:33:34.098Z,100068.40
2022-11-15T16:36:06.695Z,100065.33
2022-11-15T16:38:40.107Z,100064.83
2022-11-15T16:41:11.256Z,100068.90
2022-11-15T16:43:42.338Z,100074.68
2022-11-15T16:46:18.949Z,100074.00
2022-11-15T16:48:50.631Z,100071.28
2022-11-15T16:51:21.652Z,100069.59
2022-11-15T16:53:53.794Z,100069.75
2022-11-15T16:56:27.659Z,100073.48
2022-11-15T16:59:00.135Z,100076.20
2022-11-15T17:01:32.998Z,100075.86
2022-11-15T17:04:13.031Z,100069.06
2022-11-15T17:06:48.436Z,100063.80
2022-11-15T17:09:23.753Z,100063.13
2022-11-15T17:11:53.213Z,100062.27
2022-11-15T17:14:24.437Z,100066.52
2022-11-15T17:16:55.552Z,100065.50
2022-11-15T17:19:26.623Z,100060.90
2022-11-15T17:21:57.701Z,100063.79
2022-11-15T17:24:28.835Z,100060.89
2022-11-15T17:26:59.768Z,100058.34
2022-11-15T17:29:31.280Z,100058.51
2022-11-15T17:32:02.524Z,100068.70
2022-11-15T17:34:33.458Z,100073.29
2022-11-15T17:37:04.655Z,100077.20
2022-11-15T17:39:35.901Z,100078.04
2022-11-15T17:42:07.176Z,100079.74
2022-11-15T17:44:38.408Z,100074.30
2022-11-15T17:47:09.542Z,100071.23
2022-11-15T17:49:41.203Z,100067.67
2022-11-15T17:52:12.205Z,100062.75
2022-11-15T17:54:44.758Z,100062.75
2022-11-15T17:57:17.102Z,100056.46
2022-11-15T17:59:48.824Z,100050.00
2022-11-15T18:02:20.078Z,100048.65
2022-11-15T18:04:51.129Z,100052.88
2022-11-15T18:07:22.051Z,100047.62
2022-11-15T18:09:53.853Z,100045.74
2022-11-15T18:12:27.307Z,100047.10
2022-11-15T18:15:00.127Z,100048.81
2022-11-15T18:17:32.257Z,100044.20
2022-11-15T18:20:03.893Z,100040.98
2022-11-15T18:22:35.182Z,100040.98
2022-11-15T18:25:07.403Z,100039.45
2022-11-15T18:27:38.891Z,100035.38
2022-11-15T18:30:12.351Z,100034.52
2022-11-15T18:32:43.472Z,100039.27
2022-11-15T18:35:14.585Z,100044.19
2022-11-15T18:37:45.757Z,100045.73
2022-11-15T18:40:17.152Z,100047.08
2022-11-15T18:42:48.021Z,100047.08
2022-11-15T18:45:23.879Z,100042.84
2022-11-15T18:47:55.226Z,100041.48
2022-11-15T18:50:27.257Z,100040.29
2022-11-15T18:52:58.374Z,100042.83
2022-11-15T18:55:29.552Z,100042.16
2022-11-15T18:58:00.711Z,100043.69
2022-11-15T19:00:31.847Z,100044.54
2022-11-15T19:03:03.033Z,100043.50
2022-11-15T19:05:38.635Z,100044.02
2022-11-15T19:08:09.573Z,100045.55
2022-11-15T19:10:40.858Z,100041.29
2022-11-15T19:13:11.799Z,100043.15
2022-11-15T19:15:42.817Z,100043.80
2022-11-15T19:18:14.457Z,100040.23
2022-11-15T19:20:46.135Z,100041.60
2022-11-15T19:23:17.078Z,100043.11
2022-11-15T19:25:57.039Z,100043.63
2022-11-15T19:28:28.962Z,100037.86
2022-11-15T19:31:07.990Z,100039.55
2022-11-15T19:33:39.490Z,100037.70
2022-11-15T19:36:14.017Z,100037.69
2022-11-15T19:38:45.462Z,100033.27
2022-11-15T19:41:18.852Z,100030.23
2022-11-15T19:43:51.020Z,100031.91
2022-11-15T19:46:24.777Z,100028.87
2022-11-15T19:48:56.379Z,100023.77
2022-11-15T19:51:29.428Z,100020.55
2022-11-15T19:54:06.436Z,100016.63
2022-11-15T19:56:38.042Z,100017.64
2022-11-15T19:59:11.646Z,100019.84
2022-11-15T20:01:44.012Z,100022.05
2022-11-15T20:04:15.694Z,100021.89
2022-11-15T20:06:47.034Z,100016.77
2022-11-15T20:09:20.526Z,100013.40
2022-11-15T20:11:52.119Z,100012.73
2022-11-15T20:14:24.283Z,100011.90
2022-11-15T20:16:55.349Z,100010.36
2022-11-15T20:19:27.548Z,100014.77
2022-11-15T20:21:58.625Z,100017.66
2022-11-15T20:24:31.572Z,100018.17
2022-11-15T20:27:02.759Z,100011.54
2022-11-15T20:29:36.097Z,100009.15
2022-11-15T20:32:07.644Z,100012.21
2022-11-15T20:34:41.317Z,100015.95
2022-11-15T20:37:12.276Z,100015.27
2022-11-15T20:39:43.313Z,100013.05
2022-11-15T20:42:14.586Z,100015.44
2022-11-15T20:44:46.449Z,100014.92
2022-11-15T20:47:18.788Z,100014.41
2022-11-15T20:49:50.339Z,100012.87
2022-11-15T20:52:22.590Z,100019.30
2022-11-15T20:54:53.412Z,100020.98
2022-11-15T20:57:24.430Z,100017.24
2022-11-15T20:59:56.487Z,100012.33
2022-11-15T21:02:32.839Z,100005.54
2022-11-15T21:05:04.153Z,99997.39
2022-11-15T21:07:35.343Z,99995.36
2022-11-15T21:10:24.593Z,99996.20
2022-11-15T21:12:56.141Z,100001.80
2022-11-15T21:15:27.352Z,100007.58
2022-11-15T21:17:58.876Z,100007.23
2022-11-15T21:20:30.347Z,100004.02
2022-11-15T21:23:01.885Z,100000.11
2022-11-15T21:25:33.661Z,100000.45
2022-11-15T21:28:04.811Z,99998.58
2022-11-15T21:30:36.437Z,99995.36
2022-11-15T21:33:07.365Z,99989.92
2022-11-15T21:35:38.339Z,99983.65
2022-11-15T21:38:09.410Z,99983.98
2022-11-15T21:40:41.217Z,99977.38
2022-11-15T21:43:12.613Z,99975.33
2022-11-15T21:45:43.531Z,99967.02
2022-11-15T21:48:14.729Z,99966.67
2022-11-15T21:50:46.090Z,99973.80
2022-11-15T21:53:17.646Z,99971.58
2022-11-15T21:55:48.714Z,99966.66
2022-11-15T21:58:21.114Z,99964.13
2022-11-15T22:01:10.598Z,99958.35
2022-11-15T22:03:42.196Z,99958.36
2022-11-15T22:06:18.173Z,99954.80
2022-11-15T22:08:51.347Z,99957.52
2022-11-15T22:11:23.037Z,99960.73
2022-11-15T22:13:54.268Z,99962.42
2022-11-15T22:16:26.488Z,99958.36
2022-11-15T22:18:58.252Z,99947.33
2022-11-15T22:21:29.669Z,99939.20
2022-11-15T22:24:01.229Z,99937.34
2022-11-15T22:26:32.678Z,99934.96
2022-11-15T22:29:04.313Z,99932.78
2022-11-15T22:31:35.692Z,99926.83
2022-11-15T22:34:07.018Z,99921.91
2022-11-15T22:36:58.476Z,99921.21
2022-11-15T22:39:30.216Z,99924.61
2022-11-15T22:42:01.503Z,99923.44
2022-11-15T22:44:32.748Z,99914.44
2022-11-15T22:47:04.369Z,99909.01
2022-11-15T22:49:35.512Z,99905.45
2022-11-15T22:52:06.839Z,99905.44
2022-11-15T22:54:38.067Z,99901.70
2022-11-15T22:57:09.935Z,99897.98
2022-11-15T22:59:42.251Z,99896.11
2022-11-15T23:02:13.417Z,99896.11
2022-11-15T23:04:44.610Z,99894.07
2022-11-15T23:07:15.849Z,99891.02
2022-11-15T23:09:51.814Z,99889.16
2022-11-15T23:12:41.435Z,99888.64
2022-11-15T23:15:13.168Z,99894.41
2022-11-15T23:17:44.425Z,99888.48
2022-11-15T23:20:41.414Z,99890.34
2022-11-15T23:23:06.977Z,99893.55
2022-11-15T23:25:38.123Z,99894.07
2022-11-15T23:28:09.864Z,99901.20
2022-11-15T23:30:58.486Z,99901.87
2022-11-15T23:33:47.415Z,99901.19
2022-11-15T23:36:18.453Z,99900.50
2022-11-15T23:38:49.597Z,99898.47
2022-11-15T23:41:21.103Z,99891.02
2022-11-15T23:43:52.775Z,99885.39
2022-11-15T23:46:24.060Z,99876.08
2022-11-15T23:48:55.515Z,99876.06
2022-11-15T23:51:26.869Z,99876.24
2022-11-15T23:53:58.509Z,99877.77
2022-11-15T23:56:29.771Z,99875.06
2022-11-15T23:59:01.034Z,99877.60
